Time;durP1;ratioP1;P1;durP2;ratioP2;P2;SDS_P1;SDS_P2;PMS_P1;PMS_P2;Temp;Humidity;BMP_temperature;BMP_pressure;BME280_temperature;BME280_humidity;BME280_pressure;Samples;Min_cycle;Max_cycle;Signal;HPM_P1;HPM_P2
2023/04/12 00:00:49;;;;;;;50.95;28.85;;;6.00;99.90;;;;;;4995234;28;20045;-85
2023/04/12 00:03:19;;;;;;;29.85;18.02;;;6.00;99.90;;;;;;4995453;28;20431;-85
2023/04/12 00:05:45;;;;;;;40.17;23.30;;;6.00;99.90;;;;;;4977764;28;20030;-85
2023/04/12 00:08:13;;;;;;;39.00;22.77;;;6.10;99.90;;;;;;4995199;28;20033;-84
2023/04/12 00:10:38;;;;;;;32.85;19.88;;;6.10;99.90;;;;;;4977457;28;20029;-85
2023/04/12 00:13:05;;;;;;;61.15;35.25;;;6.10;99.90;;;;;;4958426;28;20019;-85
2023/04/12 00:15:31;;;;;;;32.97;21.08;;;6.10;99.90;;;;;;4958045;28;20030;-85
2023/04/12 00:17:57;;;;;;;38.33;20.13;;;6.00;99.90;;;;;;4975311;28;20102;-85
2023/04/12 00:20:23;;;;;;;39.83;22.67;;;5.90;99.90;;;;;;4975388;28;20447;-85
2023/04/12 00:22:50;;;;;;;34.47;21.42;;;5.90;99.90;;;;;;4975758;28;20038;-85
2023/04/12 00:25:16;;;;;;;44.88;27.38;;;5.80;99.90;;;;;;4957539;28;20027;-84
2023/04/12 00:27:42;;;;;;;25.50;17.05;;;5.80;99.90;;;;;;4958304;28;20027;-85
2023/04/12 00:30:09;;;;;;;28.55;17.38;;;5.80;99.90;;;;;;4975223;28;20031;-84
2023/04/12 00:32:34;;;;;;;29.35;18.13;;;5.80;99.90;;;;;;4975535;28;20027;-84
2023/04/12 00:35:00;;;;;;;29.60;19.20;;;5.80;99.90;;;;;;4975201;28;20431;-85
2023/04/12 00:37:25;;;;;;;33.35;19.65;;;5.80;99.90;;;;;;4958022;28;20024;-85
2023/04/12 00:39:51;;;;;;;34.17;21.25;;;5.80;99.90;;;;;;4975391;28;20070;-85
2023/04/12 00:42:17;;;;;;;33.10;19.38;;;5.70;99.90;;;;;;4975173;28;20093;-85
2023/04/12 00:44:43;;;;;;;43.33;25.40;;;5.60;99.90;;;;;;4975474;28;20038;-85
2023/04/12 00:47:09;;;;;;;38.72;20.95;;;5.60;99.90;;;;;;4974849;28;20035;-85
2023/04/12 00:49:35;;;;;;;38.78;22.10;;;5.50;99.90;;;;;;4974850;28;20038;-84
2023/04/12 00:52:04;;;;;;;61.03;29.42;;;5.50;99.90;;;;;;4974577;28;20059;-85
2023/04/12 00:54:31;;;;;;;25.48;15.38;;;5.40;99.90;;;;;;4975134;28;20080;-84
2023/04/12 00:56:57;;;;;;;24.63;14.35;;;5.40;99.90;;;;;;4957904;28;20022;-85
2023/04/12 00:59:23;;;;;;;29.40;16.48;;;5.40;99.90;;;;;;4974777;28;20027;-85
2023/04/12 01:01:49;;;;;;;26.95;18.70;;;5.40;99.90;;;;;;4974405;28;20023;-85
2023/04/12 01:04:15;;;;;;;26.55;17.50;;;5.30;99.90;;;;;;4957584;28;20110;-85
2023/04/12 01:07:14;;;;;;;41.67;23.77;;;5.30;99.90;;;;;;4974887;28;20501;-84
2023/04/12 01:09:58;;;;;;;26.73;16.88;;;5.30;99.90;;;;;;4974865;28;20106;-84
2023/04/12 01:12:41;;;;;;;17.17;10.82;;;5.20;99.90;;;;;;4974542;28;20022;-85
2023/04/12 01:15:10;;;;;;;19.73;12.18;;;5.20;99.90;;;;;;4974929;28;20031;-84
2023/04/12 01:17:56;;;;;;;19.67;11.65;;;5.10;99.90;;;;;;4974669;28;20055;-84
2023/04/12 01:20:26;;;;;;;34.28;19.25;;;5.00;99.90;;;;;;4957358;28;20035;-84
2023/04/12 01:23:10;;;;;;;28.50;18.27;;;5.20;99.90;;;;;;4974540;28;20019;-84
2023/04/12 01:25:56;;;;;;;32.70;20.60;;;5.10;99.90;;;;;;4974580;28;20035;-85
2023/04/12 01:28:27;;;;;;;18.67;11.50;;;5.10;99.90;;;;;;4974461;28;20500;-86
2023/04/12 01:30:54;;;;;;;20.27;13.45;;;5.10;99.90;;;;;;4974356;28;20022;-85
2023/04/12 01:33:22;;;;;;;25.40;16.17;;;5.10;99.90;;;;;;4974447;28;20022;-85
2023/04/12 01:35:50;;;;;;;23.20;15.35;;;5.10;99.90;;;;;;4974340;28;20412;-84
2023/04/12 01:38:16;;;;;;;16.35;12.50;;;5.10;99.90;;;;;;4974100;28;20023;-84
2023/04/12 01:40:42;;;;;;;21.55;14.38;;;5.10;99.90;;;;;;4956745;28;20026;-84
2023/04/12 01:43:12;;;;;;;20.70;13.73;;;5.10;99.90;;;;;;4974204;28;20027;-84
2023/04/12 01:45:38;;;;;;;19.35;13.15;;;5.00;99.90;;;;;;4974009;28;20498;-85
2023/04/12 01:48:07;;;;;;;19.58;13.30;;;5.10;99.90;;;;;;4974441;28;20103;-85
2023/04/12 01:50:43;;;;;;;18.65;12.93;;;5.00;99.90;;;;;;4973940;28;20030;-85
2023/04/12 01:53:24;;;;;;;20.88;13.40;;;5.00;99.90;;;;;;4974175;28;20412;-85
2023/04/12 01:55:54;;;;;;;16.40;10.88;;;5.00;99.90;;;;;;4974476;28;20110;-85
2023/04/12 01:58:21;;;;;;;13.52;9.80;;;5.00;99.90;;;;;;4973989;28;20462;-84
2023/04/12 02:00:49;;;;;;;16.88;13.48;;;5.00;99.90;;;;;;4973800;28;20034;-85
2023/04/12 02:03:16;;;;;;;19.63;13.75;;;5.00;99.90;;;;;;4986064;28;20041;-85
2023/04/12 02:05:42;;;;;;;14.80;10.55;;;5.00;99.90;;;;;;4983620;28;20026;-85
2023/04/12 02:08:08;;;;;;;14.80;10.27;;;5.00;99.90;;;;;;4993275;28;20530;-85
2023/04/12 02:10:35;;;;;;;17.27;12.57;;;5.00;99.90;;;;;;4993505;28;20026;-84
2023/04/12 02:13:02;;;;;;;15.32;10.35;;;5.00;99.90;;;;;;4976008;28;20040;-85
2023/04/12 02:15:28;;;;;;;18.95;14.23;;;5.00;99.90;;;;;;4993431;28;20392;-84
2023/04/12 02:17:54;;;;;;;18.40;12.65;;;4.90;99.90;;;;;;4993421;28;20026;-84
2023/04/12 02:20:21;;;;;;;17.13;12.40;;;5.00;99.90;;;;;;4993331;28;20022;-85
2023/04/12 02:22:47;;;;;;;15.45;10.27;;;5.00;99.90;;;;;;4993161;28;20029;-85
2023/04/12 02:25:14;;;;;;;15.75;9.60;;;5.00;99.90;;;;;;4975928;28;20026;-85
2023/04/12 02:27:40;;;;;;;14.18;9.73;;;5.00;99.90;;;;;;4993234;28;20038;-85
2023/04/12 02:30:06;;;;;;;12.68;9.90;;;4.90;99.90;;;;;;4992982;28;20030;-84
2023/04/12 02:32:32;;;;;;;18.38;13.70;;;4.90;99.90;;;;;;4976116;28;20018;-84
2023/04/12 02:34:59;;;;;;;15.10;10.73;;;5.00;99.90;;;;;;4993271;28;20431;-85
2023/04/12 02:37:26;;;;;;;15.95;10.60;;;5.00;99.90;;;;;;4993037;28;20065;-85
2023/04/12 02:39:55;;;;;;;22.30;11.07;;;5.00;99.90;;;;;;4995071;28;20034;-85
2023/04/12 02:42:21;;;;;;;14.95;11.27;;;4.90;99.90;;;;;;4996894;28;20427;-85
2023/04/12 02:44:47;;;;;;;15.80;10.18;;;5.00;99.90;;;;;;4979088;28;20049;-85
2023/04/12 02:47:13;;;;;;;18.40;11.68;;;4.90;99.90;;;;;;4996400;28;20437;-85
2023/04/12 02:49:39;;;;;;;16.17;10.77;;;5.00;99.90;;;;;;4996837;28;20018;-85
2023/04/12 02:52:04;;;;;;;15.18;10.23;;;5.00;99.90;;;;;;4996023;28;20046;-85
2023/04/12 02:54:30;;;;;;;13.52;10.07;;;5.00;99.90;;;;;;4996696;28;20114;-84
2023/04/12 02:56:56;;;;;;;16.45;10.80;;;5.10;99.90;;;;;;4996668;28;20428;-84
2023/04/12 02:59:21;;;;;;;15.98;9.63;;;5.10;99.90;;;;;;4996644;28;20093;-85
2023/04/12 03:01:49;;;;;;;14.10;9.23;;;5.10;99.90;;;;;;4996320;28;20033;-85
2023/04/12 03:04:15;;;;;;;18.08;12.43;;;5.00;99.90;;;;;;4996222;28;20015;-84
2023/04/12 03:06:51;;;;;;;18.73;12.98;;;5.00;99.90;;;;;;4996438;28;20038;-84
2023/04/12 03:09:17;;;;;;;14.38;10.43;;;5.00;99.90;;;;;;4979044;28;20033;-85
2023/04/12 03:11:43;;;;;;;15.82;11.63;;;5.00;99.90;;;;;;4979007;28;20113;-85
2023/04/12 03:14:08;;;;;;;15.75;11.23;;;5.10;99.90;;;;;;4996364;28;20105;-85
2023/04/12 03:16:35;;;;;;;15.15;10.18;;;5.10;99.90;;;;;;4996029;28;20023;-85
2023/04/12 03:19:02;;;;;;;20.17;12.52;;;5.00;99.90;;;;;;4996162;28;20064;-85
2023/04/12 03:21:28;;;;;;;17.35;11.57;;;5.00;99.90;;;;;;4996248;28;20026;-84
2023/04/12 03:23:53;;;;;;;18.45;12.07;;;5.10;99.90;;;;;;4996274;28;20029;-85
2023/04/12 03:26:19;;;;;;;19.83;13.38;;;5.10;99.90;;;;;;4996249;28;20548;-86
2023/04/12 03:28:47;;;;;;;20.10;12.77;;;5.00;99.90;;;;;;4996140;28;20033;-84
2023/04/12 03:31:13;;;;;;;26.42;15.70;;;5.10;99.90;;;;;;4996173;28;20105;-84
2023/04/12 03:33:38;;;;;;;19.67;12.55;;;5.00;99.90;;;;;;4995605;28;20110;-85
2023/04/12 03:36:05;;;;;;;22.73;13.35;;;5.00;99.90;;;;;;4995979;28;20053;-84
2023/04/12 03:38:30;;;;;;;33.03;19.10;;;5.00;99.90;;;;;;4995716;28;20109;-84
2023/04/12 03:40:56;;;;;;;24.60;15.63;;;5.00;99.90;;;;;;4996117;28;20109;-84
2023/04/12 03:43:22;;;;;;;21.33;13.88;;;4.90;99.90;;;;;;4995877;28;20030;-84
2023/04/12 03:45:47;;;;;;;24.52;16.30;;;4.80;99.90;;;;;;4995642;28;20026;-85
2023/04/12 03:48:13;;;;;;;26.05;15.10;;;4.90;99.90;;;;;;4995721;28;20025;-84
2023/04/12 03:50:43;;;;;;;19.20;12.82;;;4.80;99.90;;;;;;4994649;28;20033;-85
2023/04/12 03:53:13;;;;;;;18.15;12.75;;;4.80;99.90;;;;;;4995574;28;20101;-84
2023/04/12 03:55:39;;;;;;;20.27;14.70;;;4.80;99.90;;;;;;4994756;28;20381;-84
2023/04/12 03:58:05;;;;;;;22.35;13.07;;;4.90;99.90;;;;;;4995675;28;20495;-85
2023/04/12 04:00:31;;;;;;;19.55;13.77;;;4.90;99.90;;;;;;4995570;28;20026;-85
2023/04/12 04:03:02;;;;;;;17.75;11.90;;;4.90;99.90;;;;;;4995472;28;20468;-85
2023/04/12 04:05:31;;;;;;;15.65;10.60;;;4.90;99.90;;;;;;4995499;28;20423;-85
2023/04/12 04:08:01;;;;;;;21.65;13.70;;;4.90;99.90;;;;;;4995494;28;20023;-85
2023/04/12 04:10:30;;;;;;;19.35;13.45;;;4.80;99.90;;;;;;4995301;28;20022;-85
2023/04/12 04:12:55;;;;;;;15.80;11.38;;;4.90;99.90;;;;;;4994980;28;20037;-85
2023/04/12 04:15:21;;;;;;;17.30;13.68;;;4.80;99.90;;;;;;4995018;28;20018;-84
2023/04/12 04:17:48;;;;;;;20.30;12.43;;;4.80;99.90;;;;;;4995260;28;20480;-85
2023/04/12 04:20:13;;;;;;;19.23;11.55;;;4.80;99.90;;;;;;4995186;28;20480;-85
2023/04/12 04:22:41;;;;;;;18.95;13.23;;;4.80;99.90;;;;;;4995169;28;20041;-85
2023/04/12 04:25:07;;;;;;;20.15;12.30;;;4.80;99.90;;;;;;4995145;28;20022;-84
2023/04/12 04:27:33;;;;;;;20.60;12.43;;;4.70;99.90;;;;;;4994929;28;20070;-84
2023/04/12 04:30:03;;;;;;;19.48;12.88;;;4.70;99.90;;;;;;4995058;28;20425;-84
2023/04/12 04:32:30;;;;;;;22.23;14.50;;;4.70;99.90;;;;;;4995098;28;20022;-84
2023/04/12 04:34:59;;;;;;;23.60;13.27;;;4.70;99.90;;;;;;4994676;28;20030;-84
2023/04/12 04:37:26;;;;;;;19.98;13.60;;;4.70;99.90;;;;;;4994805;28;20022;-85
2023/04/12 04:39:52;;;;;;;21.45;14.10;;;4.70;99.90;;;;;;4994933;28;20054;-85
2023/04/12 04:42:18;;;;;;;24.63;14.02;;;4.70;99.90;;;;;;4994594;28;20081;-84
2023/04/12 04:44:43;;;;;;;28.17;15.32;;;4.70;99.90;;;;;;4977060;28;20034;-84
2023/04/12 04:47:10;;;;;;;23.08;14.10;;;4.70;99.90;;;;;;4976947;28;20109;-85
2023/04/12 04:49:36;;;;;;;19.55;12.45;;;4.70;99.90;;;;;;4994184;28;20022;-85
2023/04/12 04:52:03;;;;;;;25.20;14.45;;;4.70;99.90;;;;;;4958542;28;20081;-84
2023/04/12 04:54:29;;;;;;;20.23;13.15;;;4.70;99.90;;;;;;4974811;28;20026;-84
2023/04/12 04:56:56;;;;;;;62.47;28.83;;;4.70;99.90;;;;;;4974865;28;20023;-85
2023/04/12 04:59:22;;;;;;;187.93;82.22;;;4.70;99.90;;;;;;4972951;28;20177;-85
2023/04/12 05:01:48;;;;;;;48.83;26.25;;;4.70;99.90;;;;;;4994122;28;20101;-85
2023/04/12 05:04:14;;;;;;;67.13;38.00;;;4.70;99.90;;;;;;4993874;28;20110;-85
2023/04/12 05:06:40;;;;;;;135.18;76.38;;;4.60;99.90;;;;;;4994372;28;20408;-85
2023/04/12 05:09:05;;;;;;;90.85;53.50;;;4.60;99.90;;;;;;4976762;28;20081;-84
2023/04/12 05:11:31;;;;;;;78.05;50.78;;;4.70;99.90;;;;;;4987114;28;20023;-84
2023/04/12 05:13:57;;;;;;;51.38;34.55;;;4.70;99.90;;;;;;4974567;28;20051;-87
2023/04/12 05:16:26;;;;;;;69.72;48.70;;;4.70;99.90;;;;;;4973136;28;20023;-84
2023/04/12 05:18:54;;;;;;;34.83;23.58;;;4.70;99.90;;;;;;4973634;28;20105;-84
2023/04/12 05:21:21;;;;;;;32.67;22.05;;;4.80;99.90;;;;;;4956247;28;20130;-86
2023/04/12 05:23:46;;;;;;;31.40;18.17;;;4.80;99.90;;;;;;4971313;28;20535;-86
2023/04/12 05:26:12;;;;;;;30.05;18.85;;;4.80;99.90;;;;;;4970820;28;20039;-86
2023/04/12 05:28:38;;;;;;;31.27;19.90;;;4.90;99.90;;;;;;4974659;28;20524;-87
2023/04/12 05:31:10;;;;;;;33.30;20.10;;;4.80;99.90;;;;;;4966071;28;20374;-86
2023/04/12 05:33:36;;;;;;;23.60;15.35;;;4.80;99.90;;;;;;4977916;28;20023;-87
2023/04/12 05:36:08;;;;;;;38.33;23.38;;;4.80;99.90;;;;;;4981061;28;20391;-87
2023/04/12 05:38:33;;;;;;;34.65;21.15;;;4.80;99.90;;;;;;4972205;28;20117;-87
2023/04/12 05:41:03;;;;;;;25.17;15.52;;;4.80;99.90;;;;;;4984979;28;20107;-88
2023/04/12 05:43:28;;;;;;;33.95;22.15;;;4.80;99.90;;;;;;4988014;28;20503;-85
2023/04/12 05:45:54;;;;;;;21.60;14.07;;;4.80;99.90;;;;;;4991669;28;20042;-86
2023/04/12 05:48:20;;;;;;;18.92;11.60;;;4.90;99.90;;;;;;4976201;28;20027;-87
2023/04/12 05:50:50;;;;;;;27.10;15.85;;;4.90;99.90;;;;;;4976663;28;20029;-85
2023/04/12 05:53:16;;;;;;;26.25;15.35;;;4.90;99.90;;;;;;4972864;28;20046;-87
2023/04/12 05:55:42;;;;;;;104.00;49.45;;;4.80;99.90;;;;;;4973318;28;20464;-88
2023/04/12 05:58:08;;;;;;;52.05;27.15;;;4.90;99.90;;;;;;4974612;28;20019;-85
2023/04/12 06:00:34;;;;;;;25.55;14.70;;;4.90;99.90;;;;;;4973150;28;20078;-85
2023/04/12 06:03:00;;;;;;;52.95;28.23;;;4.90;99.90;;;;;;4974506;28;20441;-85
2023/04/12 06:05:26;;;;;;;22.15;13.90;;;4.90;99.90;;;;;;4973988;28;20019;-85
2023/04/12 06:07:51;;;;;;;27.33;17.13;;;5.00;99.90;;;;;;4973122;28;20053;-88
2023/04/12 06:10:18;;;;;;;70.10;36.08;;;4.90;99.90;;;;;;4965523;28;20050;-85
2023/04/12 06:12:44;;;;;;;122.32;64.57;;;4.90;99.90;;;;;;4955754;28;20027;-84
2023/04/12 06:15:10;;;;;;;33.13;19.98;;;4.90;99.90;;;;;;4974489;28;20034;-87
2023/04/12 06:17:37;;;;;;;55.38;30.50;;;4.80;99.90;;;;;;4976538;28;20027;-84
2023/04/12 06:20:09;;;;;;;87.38;43.10;;;4.70;99.90;;;;;;4965799;28;20034;-87
2023/04/12 06:22:36;;;;;;;33.00;18.63;;;4.80;99.90;;;;;;4968533;28;20118;-85
2023/04/12 06:25:02;;;;;;;38.17;21.85;;;4.80;99.90;;;;;;4958855;28;20032;-88
2023/04/12 06:27:28;;;;;;;25.20;14.85;;;5.00;99.90;;;;;;4958404;28;20043;-88
2023/04/12 06:29:54;;;;;;;22.73;14.40;;;5.00;99.90;;;;;;4957053;28;20031;-85
2023/04/12 06:32:20;;;;;;;25.33;15.48;;;5.00;99.90;;;;;;4957107;28;20038;-84
2023/04/12 06:34:46;;;;;;;21.75;14.23;;;5.00;99.90;;;;;;4958382;28;20024;-86
2023/04/12 06:37:12;;;;;;;22.75;13.60;;;5.00;99.90;;;;;;4958455;28;20031;-85
2023/04/12 06:39:38;;;;;;;23.58;13.52;;;5.00;99.90;;;;;;4957326;28;20473;-87
2023/04/12 06:42:04;;;;;;;23.98;15.65;;;5.00;99.90;;;;;;4958155;29;20102;-88
2023/04/12 06:44:32;;;;;;;24.08;13.65;;;5.10;99.90;;;;;;4956887;28;20366;-85
2023/04/12 06:46:58;;;;;;;23.15;13.60;;;5.10;99.90;;;;;;4958005;28;20070;-88
2023/04/12 06:49:24;;;;;;;20.98;14.32;;;5.20;99.90;;;;;;4957108;28;20026;-84
2023/04/12 06:51:50;;;;;;;33.40;19.70;;;5.10;99.90;;;;;;4958256;28;20027;-87
2023/04/12 06:54:16;;;;;;;22.05;13.38;;;5.20;99.90;;;;;;4977234;28;20090;-84
2023/04/12 06:56:42;;;;;;;24.92;14.85;;;5.20;99.90;;;;;;4959801;28;20158;-88
2023/04/12 06:59:08;;;;;;;27.17;15.82;;;5.30;99.90;;;;;;4977236;28;20366;-88
2023/04/12 07:01:34;;;;;;;24.35;15.75;;;5.40;99.90;;;;;;4987082;28;20022;-88
2023/04/12 07:04:00;;;;;;;24.02;14.45;;;5.50;99.90;;;;;;4979286;28;20025;-88
2023/04/12 07:06:27;;;;;;;21.08;14.10;;;5.40;99.90;;;;;;4979273;28;20137;-84
2023/04/12 07:08:53;;;;;;;21.33;14.05;;;5.60;99.90;;;;;;4984792;28;20018;-89
2023/04/12 07:11:21;;;;;;;25.70;15.30;;;5.60;99.90;;;;;;5002872;28;20052;-85
2023/04/12 07:13:47;;;;;;;24.10;13.27;;;5.70;99.90;;;;;;4997735;28;20027;-88
2023/04/12 07:16:13;;;;;;;21.25;12.85;;;5.80;99.90;;;;;;4995609;28;20034;-85
2023/04/12 07:18:39;;;;;;;23.92;13.77;;;5.90;99.90;;;;;;4979100;28;20503;-85
2023/04/12 07:21:05;;;;;;;19.50;13.40;;;6.00;99.90;;;;;;4971232;28;20035;-86
2023/04/12 07:23:31;;;;;;;19.67;13.23;;;6.00;99.90;;;;;;4959314;28;20023;-88
2023/04/12 07:26:01;;;;;;;17.13;12.35;;;6.00;99.90;;;;;;4959213;28;20034;-87
2023/04/12 07:28:27;;;;;;;20.10;12.43;;;6.10;99.90;;;;;;4957488;28;20027;-85
2023/04/12 07:30:53;;;;;;;18.55;12.38;;;6.10;99.90;;;;;;4984391;28;20425;-85
2023/04/12 07:33:19;;;;;;;19.65;12.63;;;6.20;99.90;;;;;;4977886;28;20030;-86
2023/04/12 07:35:45;;;;;;;20.98;12.57;;;6.30;99.90;;;;;;4995326;28;20033;-85
2023/04/12 07:38:11;;;;;;;17.38;11.95;;;6.40;99.90;;;;;;4970095;28;20027;-87
2023/04/12 07:40:36;;;;;;;16.20;11.35;;;6.40;99.90;;;;;;4994777;28;20468;-85
2023/04/12 07:43:02;;;;;;;17.92;11.70;;;6.40;99.90;;;;;;4965603;28;20381;-87
2023/04/12 07:45:28;;;;;;;18.52;10.70;;;6.40;99.90;;;;;;4956876;28;20052;-85
2023/04/12 07:47:54;;;;;;;16.80;11.95;;;6.50;99.90;;;;;;4957993;28;20034;-84
2023/04/12 07:50:20;;;;;;;17.35;12.38;;;6.50;99.90;;;;;;4976412;28;20520;-86
2023/04/12 07:52:46;;;;;;;17.95;12.45;;;6.50;99.90;;;;;;4972438;28;20043;-85
2023/04/12 07:55:12;;;;;;;20.17;12.35;;;6.60;99.90;;;;;;4975088;28;20464;-84
2023/04/12 07:57:38;;;;;;;18.73;12.50;;;6.70;99.90;;;;;;4966037;28;20030;-84
2023/04/12 08:00:04;;;;;;;19.13;12.95;;;6.70;99.90;;;;;;4967667;28;20019;-83
2023/04/12 08:02:30;;;;;;;20.65;13.60;;;6.50;99.90;;;;;;4975439;28;20025;-85
2023/04/12 08:04:56;;;;;;;16.98;11.95;;;6.40;99.90;;;;;;4975564;28;20023;-87
2023/04/12 08:07:22;;;;;;;14.75;9.63;;;6.60;99.90;;;;;;4994632;28;20435;-83
2023/04/12 08:09:48;;;;;;;17.10;10.52;;;6.50;99.90;;;;;;4994788;28;20018;-87
2023/04/12 08:12:14;;;;;;;20.20;13.13;;;6.60;99.90;;;;;;4961311;28;20035;-87
2023/04/12 08:14:40;;;;;;;13.30;10.02;;;6.70;99.90;;;;;;4957742;28;20455;-84
2023/04/12 08:17:06;;;;;;;15.52;10.65;;;6.60;99.90;;;;;;4986466;28;20038;-84
2023/04/12 08:19:32;;;;;;;17.70;11.02;;;6.60;99.90;;;;;;4975981;28;20026;-88
2023/04/12 08:21:58;;;;;;;14.98;10.48;;;6.60;99.90;;;;;;4960513;28;20022;-83
2023/04/12 08:24:23;;;;;;;14.00;9.93;;;6.70;99.90;;;;;;4982297;28;20375;-87
2023/04/12 08:26:52;;;;;;;14.45;9.95;;;6.70;99.90;;;;;;4984267;28;20050;-87
2023/04/12 08:29:18;;;;;;;18.52;11.27;;;6.70;99.90;;;;;;4957592;28;20142;-84
2023/04/12 08:31:45;;;;;;;30.33;15.82;;;6.80;99.90;;;;;;4974321;28;20034;-87
2023/04/12 08:34:10;;;;;;;17.40;12.30;;;6.80;99.90;;;;;;4959027;28;20022;-84
2023/04/12 08:36:36;;;;;;;14.93;10.45;;;6.90;99.90;;;;;;4961202;28;20393;-87
2023/04/12 08:39:03;;;;;;;15.52;10.45;;;6.90;99.90;;;;;;4974473;28;20019;-87
2023/04/12 08:41:28;;;;;;;13.48;9.90;;;6.80;99.90;;;;;;4956363;28;20106;-88
2023/04/12 08:43:54;;;;;;;15.63;10.52;;;6.70;99.90;;;;;;4942190;28;20165;-85
2023/04/12 08:46:20;;;;;;;15.52;10.13;;;6.70;99.90;;;;;;4956927;28;20523;-84
2023/04/12 08:48:53;;;;;;;13.25;9.50;;;6.80;99.90;;;;;;4956766;28;20031;-83
2023/04/12 08:51:25;;;;;;;14.98;9.85;;;6.80;99.90;;;;;;4957720;28;20027;-87
2023/04/12 08:53:52;;;;;;;12.35;9.13;;;6.80;99.90;;;;;;4975011;28;20382;-88
2023/04/12 08:56:19;;;;;;;12.50;9.13;;;6.80;99.90;;;;;;4957615;28;20037;-87
2023/04/12 08:58:49;;;;;;;13.02;9.60;;;7.00;99.90;;;;;;4957700;28;20085;-87
2023/04/12 09:01:16;;;;;;;12.63;8.32;;;7.10;99.90;;;;;;4957232;28;20026;-85
2023/04/12 09:03:43;;;;;;;12.48;8.52;;;7.10;99.90;;;;;;4957671;28;20108;-88
2023/04/12 09:06:09;;;;;;;10.35;7.15;;;7.10;99.90;;;;;;4974910;28;20042;-85
2023/04/12 09:08:35;;;;;;;10.73;7.72;;;7.10;99.90;;;;;;4974702;28;20035;-85
2023/04/12 09:11:19;;;;;;;10.38;7.22;;;7.10;99.90;;;;;;4974915;28;20531;-87
2023/04/12 09:13:45;;;;;;;11.02;6.95;;;7.10;99.90;;;;;;4977637;28;20018;-85
2023/04/12 09:16:11;;;;;;;11.68;6.50;;;7.20;99.90;;;;;;4990901;28;20364;-88
2023/04/12 09:18:50;;;;;;;9.10;6.82;;;7.20;99.90;;;;;;4960190;28;20423;-87
2023/04/12 09:21:17;;;;;;;10.00;7.25;;;7.20;99.90;;;;;;4991273;28;20030;-85
2023/04/12 09:23:42;;;;;;;8.50;6.97;;;7.40;99.90;;;;;;4967762;28;20030;-88
2023/04/12 09:26:25;;;;;;;8.32;7.07;;;7.50;99.90;;;;;;4971680;28;20498;-87
2023/04/12 09:28:51;;;;;;;8.02;6.90;;;7.70;99.90;;;;;;4976120;28;20498;-87
2023/04/12 09:31:16;;;;;;;9.40;7.15;;;7.80;99.90;;;;;;4993274;28;20030;-85
2023/04/12 09:33:42;;;;;;;9.00;6.82;;;8.10;99.90;;;;;;4992630;28;20097;-84
2023/04/12 09:36:13;;;;;;;8.63;7.13;;;8.30;99.90;;;;;;4975457;28;20109;-88
2023/04/12 09:38:40;;;;;;;11.73;8.75;;;8.30;99.90;;;;;;4993511;28;20076;-85
2023/04/12 09:41:21;;;;;;;9.32;7.20;;;8.10;99.90;;;;;;4975112;28;20483;-84
2023/04/12 09:43:47;;;;;;;9.98;6.78;;;8.10;99.90;;;;;;4976681;28;20022;-87
2023/04/12 09:46:13;;;;;;;9.20;6.63;;;8.10;99.90;;;;;;4963240;28;20362;-88
2023/04/12 09:48:51;;;;;;;13.45;7.07;;;8.20;99.90;;;;;;4985212;28;20030;-88
2023/04/12 09:51:27;;;;;;;8.75;6.78;;;8.20;99.90;;;;;;4982284;28;20093;-89
2023/04/12 09:54:00;;;;;;;7.78;6.07;;;8.40;99.90;;;;;;4982363;28;20049;-87
2023/04/12 09:56:37;;;;;;;8.18;6.70;;;8.60;99.90;;;;;;4983222;28;20023;-85
2023/04/12 09:59:06;;;;;;;6.65;5.72;;;8.80;96.70;;;;;;4981577;28;20042;-87
2023/04/12 10:01:37;;;;;;;8.10;6.03;;;9.20;94.20;;;;;;4966253;28;20077;-87
2023/04/12 10:04:06;;;;;;;8.27;5.80;;;9.20;90.40;;;;;;4962641;28;20034;-84
2023/04/12 10:06:33;;;;;;;6.72;5.18;;;9.20;90.80;;;;;;4968292;28;20054;-87
2023/04/12 10:09:01;;;;;;;7.78;5.25;;;9.20;89.50;;;;;;4980990;28;20026;-88
2023/04/12 10:11:28;;;;;;;6.45;5.38;;;9.20;88.20;;;;;;4989329;28;20084;-85
2023/04/12 10:13:57;;;;;;;12.80;9.55;;;9.40;88.60;;;;;;4972287;28;20029;-86
2023/04/12 10:16:25;;;;;;;5.57;4.85;;;9.30;88.10;;;;;;4981220;28;20062;-87
2023/04/12 10:18:51;;;;;;;5.03;4.47;;;9.30;82.00;;;;;;4966729;28;20388;-85
2023/04/12 10:21:17;;;;;;;5.30;4.75;;;9.40;83.10;;;;;;4970566;28;20031;-85
2023/04/12 10:23:44;;;;;;;5.07;4.35;;;9.50;85.20;;;;;;4983550;28;20022;-87
2023/04/12 10:26:10;;;;;;;11.63;6.10;;;9.60;83.60;;;;;;4966813;28;20035;-85
2023/04/12 10:28:45;;;;;;;7.75;6.28;;;9.70;81.90;;;;;;4963199;28;20133;-86
2023/04/12 10:31:31;;;;;;;5.20;4.70;;;9.70;81.40;;;;;;4964973;28;20498;-85
2023/04/12 10:34:01;;;;;;;6.93;5.85;;;9.70;78.30;;;;;;4960802;28;20035;-86
2023/04/12 10:36:55;;;;;;;9.80;7.18;;;9.80;77.50;;;;;;4979525;28;20400;-86
2023/04/12 10:39:41;;;;;;;14.40;8.50;;;9.90;76.80;;;;;;4965917;28;20388;-87
2023/04/12 10:42:21;;;;;;;15.65;8.73;;;10.00;79.70;;;;;;4965665;28;20034;-86
2023/04/12 10:44:47;;;;;;;16.65;10.05;;;10.10;77.20;;;;;;4978604;28;20429;-87
2023/04/12 10:47:13;;;;;;;19.85;12.43;;;10.20;78.10;;;;;;4977552;28;20038;-86
2023/04/12 10:49:39;;;;;;;7.10;4.57;;;10.30;79.40;;;;;;4965670;28;20019;-85
2023/04/12 10:52:08;;;;;;;4.55;3.78;;;10.40;75.20;;;;;;4980923;28;20527;-86
2023/04/12 10:54:34;;;;;;;4.25;3.92;;;10.30;70.80;;;;;;4977748;28;20027;-85
2023/04/12 10:57:01;;;;;;;6.10;4.25;;;10.40;71.10;;;;;;4961460;28;20027;-86
2023/04/12 10:59:54;;;;;;;5.80;3.85;;;10.40;71.30;;;;;;4979796;28;20077;-87
2023/04/12 11:02:20;;;;;;;5.50;3.65;;;10.30;71.50;;;;;;4984752;28;20050;-86
2023/04/12 11:05:19;;;;;;;7.75;5.00;;;10.20;70.50;;;;;;4984937;28;20518;-86
2023/04/12 11:07:52;;;;;;;6.80;4.20;;;10.30;73.10;;;;;;4934146;28;20047;-86
2023/04/12 11:10:21;;;;;;;5.75;4.15;;;10.40;73.50;;;;;;4963738;28;20023;-85
2023/04/12 11:12:49;;;;;;;4.65;4.03;;;10.20;70.80;;;;;;4984149;28;20026;-85
2023/04/12 11:15:15;;;;;;;8.25;7.45;;;10.20;70.20;;;;;;4964724;28;20481;-87
2023/04/12 11:17:41;;;;;;;5.60;5.10;;;10.10;70.20;;;;;;4982319;28;20369;-85
2023/04/12 11:20:12;;;;;;;4.88;4.07;;;9.90;73.80;;;;;;4983644;28;20114;-86
2023/04/12 11:22:39;;;;;;;6.60;3.65;;;9.90;75.60;;;;;;4965957;28;20015;-87
2023/04/12 11:25:06;;;;;;;5.03;4.53;;;9.80;75.10;;;;;;4965619;28;20025;-86
2023/04/12 11:27:33;;;;;;;5.18;4.28;;;9.70;75.00;;;;;;4968561;28;20388;-87
2023/04/12 11:30:00;;;;;;;4.63;4.13;;;9.60;73.30;;;;;;4986011;28;20540;-86
2023/04/12 11:32:28;;;;;;;5.70;4.57;;;9.50;75.30;;;;;;4984199;28;20088;-86
2023/04/12 11:34:55;;;;;;;8.25;5.30;;;9.50;76.20;;;;;;4963039;28;20413;-86
2023/04/12 11:37:22;;;;;;;11.43;7.30;;;9.30;76.40;;;;;;4958732;28;20481;-87
2023/04/12 11:39:51;;;;;;;14.95;9.05;;;9.40;76.60;;;;;;4959244;28;20162;-86
2023/04/12 11:42:23;;;;;;;9.25;6.07;;;9.40;75.40;;;;;;4958798;28;20065;-85
2023/04/12 11:44:49;;;;;;;7.47;4.35;;;9.40;74.20;;;;;;4959578;28;20027;-85
2023/04/12 11:47:20;;;;;;;7.68;5.78;;;9.30;76.20;;;;;;4980870;28;20046;-86
2023/04/12 11:49:50;;;;;;;6.78;5.55;;;9.50;75.30;;;;;;4965779;28;20030;-86
2023/04/12 11:52:20;;;;;;;12.98;6.50;;;9.50;74.30;;;;;;4968407;28;20060;-85
2023/04/12 11:54:48;;;;;;;7.38;5.57;;;9.60;73.20;;;;;;4984340;28;20025;-85
2023/04/12 11:57:18;;;;;;;7.90;5.70;;;9.70;72.00;;;;;;4983341;28;20060;-84
2023/04/12 11:59:48;;;;;;;7.72;6.55;;;9.70;73.30;;;;;;4975604;28;20018;-85
2023/04/12 12:02:16;;;;;;;8.23;5.80;;;9.70;73.40;;;;;;4958587;28;20469;-85
2023/04/12 12:04:47;;;;;;;40.08;21.65;;;9.80;73.30;;;;;;4972549;28;20066;-86
2023/04/12 12:07:15;;;;;;;59.22;31.20;;;9.70;72.70;;;;;;4968477;28;20035;-85
2023/04/12 12:09:42;;;;;;;11.23;7.25;;;9.90;72.20;;;;;;4984100;28;20137;-85
2023/04/12 12:12:11;;;;;;;8.70;6.20;;;10.00;72.60;;;;;;4983771;28;20421;-85
2023/04/12 12:14:37;;;;;;;6.95;5.40;;;10.00;71.60;;;;;;4978711;28;20106;-85
2023/04/12 12:17:10;;;;;;;8.68;6.43;;;10.20;72.00;;;;;;4958483;28;20138;-85
2023/04/12 12:19:37;;;;;;;7.22;6.18;;;10.10;71.20;;;;;;4975408;28;20026;-85
2023/04/12 12:22:11;;;;;;;10.18;6.88;;;10.30;71.80;;;;;;4957259;28;20050;-85
2023/04/12 12:24:37;;;;;;;11.18;7.10;;;10.40;71.80;;;;;;4975098;28;20432;-84
2023/04/12 12:27:03;;;;;;;9.00;6.72;;;10.50;70.60;;;;;;4974522;28;20038;-85
2023/04/12 12:29:36;;;;;;;11.07;6.50;;;10.60;69.40;;;;;;4975188;28;20031;-84
2023/04/12 12:32:10;;;;;;;13.27;10.85;;;10.70;69.30;;;;;;4975120;28;20050;-85
2023/04/12 12:34:35;;;;;;;7.57;5.65;;;10.80;69.50;;;;;;4973354;28;20440;-85
2023/04/12 12:37:01;;;;;;;7.68;6.03;;;10.80;68.60;;;;;;4973830;28;20051;-85
2023/04/12 12:39:27;;;;;;;7.57;6.25;;;10.80;67.40;;;;;;4975308;28;20093;-85
2023/04/12 12:41:55;;;;;;;8.35;6.32;;;10.80;67.70;;;;;;4973905;28;20386;-85
2023/04/12 12:44:22;;;;;;;9.48;5.90;;;10.70;67.30;;;;;;4974976;28;20023;-85